EGAA/BFS METAR and TAF weather

Enter ICAO airport designator
Station Type Date Time Source
EGAA METAR 2019/06/26 17:50 UTC NOAA

EGAA 261750Z 36011KT CAVOK 18/10 Q1031


Station Type Date Time Source
EGAA Decoded METAR 2019/06/26 17:50 UTC NOAA

Belfast / Aldergrove Airport, United Kingdom (EGAA) 54-39N 006-13W 0M
Jun 26, 2019 - 01:50 PM EDT / 2019.06.26 1750 UTC
Wind: from the N (360 degrees) at 13 MPH (11 KT):0
Visibility: greater than 7 mile(s):0
Temperature: 64 F (18 C)
Dew Point: 50 F (10 C)
Relative Humidity: 59%
Pressure (altimeter): 30.45 in. Hg (1031 hPa)
ob: EGAA 261750Z 36011KT CAVOK 18/10 Q1031
cycle: 18

Station Type Date Time Source
EGAA TAF 2019/06/26 18:06 UTC NOAA

TAF TAF EGAA 261700Z 2618/2718 35008KT CAVOK PROB40 2623/2706 4000 BR BKN003
BECMG 2708/2711 10010KT

Example: see airport list